createdAt,value
2023-04-15T00:01:50.065Z,3.90
2023-04-15T00:04:53.126Z,4.20
2023-04-15T00:07:57.794Z,3.53
2023-04-15T00:11:03.046Z,4.60
2023-04-15T00:14:07.375Z,4.00
2023-04-15T00:17:10.328Z,3.80
2023-04-15T00:20:13.632Z,4.10
2023-04-15T00:23:18.000Z,4.00
2023-04-15T00:26:21.566Z,3.63
2023-04-15T00:29:24.534Z,3.60
2023-04-15T00:32:27.605Z,3.47
2023-04-15T00:35:32.593Z,4.57
2023-04-15T00:38:39.101Z,4.17
2023-04-15T00:41:42.030Z,3.07
2023-04-15T00:44:44.943Z,3.30
2023-04-15T00:47:47.992Z,3.43
2023-04-15T00:50:50.937Z,3.47
2023-04-15T00:53:55.239Z,3.17
2023-04-15T00:56:58.863Z,4.03
2023-04-15T01:00:02.707Z,3.40
2023-04-15T01:03:05.907Z,3.53
2023-04-15T01:06:09.275Z,3.70
2023-04-15T01:09:13.576Z,4.33
2023-04-15T01:12:17.578Z,4.13
2023-04-15T01:15:21.840Z,4.03
2023-04-15T01:18:25.184Z,4.00
2023-04-15T01:21:28.262Z,5.90
2023-04-15T01:24:33.979Z,4.47
2023-04-15T01:27:40.971Z,4.00
2023-04-15T01:30:44.580Z,4.57
2023-04-15T01:33:47.707Z,4.63
2023-04-15T01:36:51.102Z,4.47
2023-04-15T01:39:54.057Z,5.10
2023-04-15T01:42:58.349Z,4.40
2023-04-15T01:46:01.617Z,4.10
2023-04-15T01:49:04.862Z,4.63
2023-04-15T01:52:08.066Z,4.77
2023-04-15T01:55:11.554Z,4.33
2023-04-15T01:58:16.433Z,4.33
2023-04-15T02:01:20.840Z,4.80
2023-04-15T02:04:23.988Z,5.13
2023-04-15T02:07:28.884Z,5.40
2023-04-15T02:10:31.852Z,5.20
2023-04-15T02:13:36.281Z,4.97
2023-04-15T02:16:39.393Z,5.83
2023-04-15T02:19:42.364Z,5.23
2023-04-15T02:22:45.562Z,4.80
2023-04-15T02:25:53.971Z,5.20
2023-04-15T02:28:58.793Z,4.60
2023-04-15T02:32:02.014Z,5.00
2023-04-15T02:35:05.702Z,5.53
2023-04-15T02:38:08.720Z,5.00
2023-04-15T02:41:11.751Z,5.43
2023-04-15T02:44:17.588Z,6.10
2023-04-15T02:47:20.807Z,6.93
2023-04-15T02:50:25.216Z,6.30
2023-04-15T02:53:28.147Z,7.67
2023-04-15T02:56:31.330Z,6.03
2023-04-15T02:59:35.616Z,8.67
2023-04-15T03:02:40.983Z,6.70
2023-04-15T03:05:45.114Z,10.03
2023-04-15T03:08:48.121Z,9.13
2023-04-15T03:11:53.474Z,7.40
2023-04-15T03:14:57.763Z,7.17
2023-04-15T03:18:00.933Z,7.90
2023-04-15T03:21:04.135Z,7.87
2023-04-15T03:24:07.421Z,8.23
2023-04-15T03:27:10.393Z,7.53
2023-04-15T03:30:14.917Z,7.53
2023-04-15T03:33:17.843Z,8.33
2023-04-15T03:36:20.830Z,8.67
2023-04-15T03:39:23.792Z,8.07
2023-04-15T03:42:27.055Z,8.37
2023-04-15T03:45:31.532Z,9.77
2023-04-15T03:48:34.499Z,9.17
2023-04-15T03:51:37.484Z,8.50
2023-04-15T03:54:40.425Z,12.40
2023-04-15T03:57:43.372Z,11.63
2023-04-15T04:00:47.661Z,10.50
2023-04-15T04:03:51.008Z,10.10
2023-04-15T04:06:54.041Z,10.20
2023-04-15T04:09:58.338Z,12.10
2023-04-15T04:13:01.444Z,11.37
2023-04-15T04:16:06.357Z,10.03
2023-04-15T04:19:09.324Z,12.37
2023-04-15T04:22:12.256Z,10.90
2023-04-15T04:25:15.214Z,10.87
2023-04-15T04:28:18.220Z,11.80
2023-04-15T04:31:22.525Z,13.17
2023-04-15T04:34:25.684Z,13.37
2023-04-15T04:37:28.654Z,11.67
2023-04-15T04:40:31.758Z,14.07
2023-04-15T04:43:34.733Z,12.57
2023-04-15T04:46:38.998Z,15.47
2023-04-15T04:49:42.170Z,15.60
2023-04-15T04:52:45.178Z,14.77
2023-04-15T04:55:48.121Z,16.00
2023-04-15T04:58:51.349Z,17.10
2023-04-15T05:01:55.677Z,16.47
2023-04-15T05:04:58.644Z,20.80
2023-04-15T05:08:01.620Z,19.63
2023-04-15T05:11:04.910Z,20.30
2023-04-15T05:14:07.872Z,20.07
2023-04-15T05:17:12.451Z,19.80
2023-04-15T05:20:15.642Z,18.33
2023-04-15T05:23:18.713Z,22.00
2023-04-15T05:26:22.119Z,20.67
2023-04-15T05:29:25.112Z,22.47
2023-04-15T05:32:29.436Z,23.87
2023-04-15T05:35:32.360Z,17.80
2023-04-15T05:38:35.298Z,20.33
2023-04-15T05:41:38.258Z,22.53
2023-04-15T05:44:41.221Z,19.67
2023-04-15T05:47:45.659Z,22.90
2023-04-15T05:50:48.711Z,23.23
2023-04-15T05:53:51.656Z,22.37
2023-04-15T05:56:54.632Z,22.33
2023-04-15T05:59:57.844Z,22.67
2023-04-15T06:03:02.186Z,20.90
2023-04-15T06:06:05.401Z,21.80
2023-04-15T06:09:08.349Z,20.03
2023-04-15T06:12:13.023Z,22.63
2023-04-15T06:15:17.096Z,22.97
2023-04-15T06:18:21.423Z,21.87
2023-04-15T06:21:24.415Z,23.80
2023-04-15T06:24:27.421Z,22.93
2023-04-15T06:27:30.596Z,23.80
2023-04-15T06:30:33.692Z,24.37
2023-04-15T06:33:37.987Z,25.50
2023-04-15T06:36:41.122Z,27.93
2023-04-15T06:39:44.597Z,26.03
2023-04-15T06:42:47.568Z,27.00
2023-04-15T06:45:50.898Z,25.80
2023-04-15T06:48:55.333Z,25.77
2023-04-15T06:51:58.330Z,27.67
2023-04-15T06:55:02.320Z,26.53
2023-04-15T06:58:05.267Z,27.97
2023-04-15T07:01:08.317Z,32.67
2023-04-15T07:04:12.855Z,27.07
2023-04-15T07:07:17.478Z,33.13
2023-04-15T07:10:20.486Z,29.53
2023-04-15T07:13:23.480Z,28.77
2023-04-15T07:16:28.587Z,28.80
2023-04-15T07:19:34.156Z,34.43
2023-04-15T07:22:37.105Z,30.77
2023-04-15T07:25:40.088Z,31.37
2023-04-15T07:28:43.047Z,31.00
2023-04-15T07:31:46.466Z,32.50
2023-04-15T07:34:50.808Z,33.27
2023-04-15T07:37:53.793Z,31.47
2023-04-15T07:40:56.816Z,33.87
2023-04-15T07:43:59.821Z,30.97
2023-04-15T07:47:03.590Z,29.30
2023-04-15T07:50:08.869Z,31.87
2023-04-15T07:53:11.846Z,34.00
2023-04-15T07:56:17.427Z,33.90
2023-04-15T07:59:21.496Z,33.20
2023-04-15T08:02:24.562Z,31.13
2023-04-15T08:05:28.922Z,33.63
2023-04-15T08:08:32.164Z,33.13
2023-04-15T08:11:35.205Z,35.13
2023-04-15T08:14:38.214Z,32.93
2023-04-15T08:17:41.209Z,34.00
2023-04-15T08:20:45.559Z,31.80
2023-04-15T08:23:50.414Z,33.43
2023-04-15T08:26:53.376Z,34.13
2023-04-15T08:29:56.323Z,32.60
2023-04-15T08:32:59.361Z,30.50
2023-04-15T08:36:03.776Z,35.70
2023-04-15T08:39:06.921Z,37.00
2023-04-15T08:42:18.331Z,32.83
2023-04-15T08:45:21.865Z,31.10
2023-04-15T08:48:27.098Z,30.87
2023-04-15T08:51:32.878Z,32.73
2023-04-15T08:54:36.609Z,30.87
2023-04-15T08:57:39.790Z,37.00
2023-04-15T09:00:43.195Z,29.77
2023-04-15T09:03:46.824Z,31.43
2023-04-15T09:06:52.168Z,30.37
2023-04-15T09:09:55.138Z,31.40
2023-04-15T09:12:58.395Z,31.43
2023-04-15T09:16:03.952Z,32.87
2023-04-15T09:19:22.577Z,30.77
2023-04-15T09:22:33.541Z,30.83
2023-04-15T09:25:36.710Z,28.37
2023-04-15T09:28:43.708Z,34.43
2023-04-15T09:31:47.138Z,31.70
2023-04-15T09:34:50.326Z,31.10
2023-04-15T09:38:02.483Z,32.50
2023-04-15T09:41:19.528Z,31.13
2023-04-15T09:44:26.389Z,29.57
2023-04-15T09:47:30.387Z,26.83
2023-04-15T09:50:42.682Z,30.23
2023-04-15T09:53:46.988Z,26.10
2023-04-15T09:56:49.950Z,27.87
2023-04-15T09:59:53.127Z,27.17
2023-04-15T10:02:56.441Z,27.20
2023-04-15T10:06:01.998Z,26.70
2023-04-15T10:09:07.940Z,30.07
2023-04-15T10:12:11.477Z,26.37
2023-04-15T10:15:17.701Z,29.07
2023-04-15T10:18:22.484Z,27.30
2023-04-15T10:21:25.830Z,26.70
2023-04-15T10:24:32.003Z,24.20
2023-04-15T10:27:35.239Z,23.27
2023-04-15T10:30:38.863Z,25.10
2023-04-15T10:33:43.038Z,20.13
2023-04-15T10:36:47.049Z,22.43
2023-04-15T10:39:51.429Z,22.63
2023-04-15T10:42:55.832Z,21.37
2023-04-15T10:45:58.914Z,21.40
2023-04-15T10:49:08.608Z,21.70
2023-04-15T10:52:12.063Z,20.40
2023-04-15T10:55:19.757Z,18.93
2023-04-15T10:58:25.023Z,15.87
2023-04-15T11:01:52.764Z,14.07
2023-04-15T11:04:57.463Z,11.67
2023-04-15T11:08:00.449Z,10.83
2023-04-15T11:11:05.231Z,12.20
2023-04-15T11:14:16.187Z,11.87
2023-04-15T11:17:29.525Z,10.10
2023-04-15T11:20:33.626Z,9.53
2023-04-15T11:23:39.382Z,10.93
2023-04-15T11:26:43.674Z,12.10
2023-04-15T11:29:46.661Z,9.47
2023-04-15T11:32:49.939Z,8.60
2023-04-15T11:35:54.921Z,8.80
2023-04-15T11:38:59.799Z,8.83
2023-04-15T11:42:04.531Z,9.80
2023-04-15T11:45:10.949Z,8.13
2023-04-15T11:48:14.997Z,8.27
2023-04-15T11:51:18.543Z,8.83
2023-04-15T11:54:21.553Z,11.07
2023-04-15T11:57:32.496Z,10.00
2023-04-15T12:00:36.474Z,8.97
2023-04-15T12:03:41.024Z,8.90
2023-04-15T12:06:44.718Z,9.53
2023-04-15T12:09:56.682Z,8.47
2023-04-15T12:13:01.043Z,8.07
2023-04-15T12:16:04.930Z,11.53
2023-04-15T12:19:10.963Z,9.20
2023-04-15T12:22:15.446Z,9.63
2023-04-15T12:25:18.476Z,9.83
2023-04-15T12:28:22.841Z,10.23
2023-04-15T12:31:26.012Z,8.70
2023-04-15T12:34:30.615Z,7.57
2023-04-15T12:37:33.586Z,9.37
2023-04-15T12:40:36.563Z,8.37
2023-04-15T12:43:40.884Z,9.43
2023-04-15T12:46:43.873Z,9.83
2023-04-15T12:49:47.079Z,9.43
2023-04-15T12:52:50.102Z,8.90
2023-04-15T12:55:54.126Z,8.50
2023-04-15T12:58:58.437Z,12.63
2023-04-15T13:02:02.871Z,8.30
2023-04-15T13:05:06.832Z,9.27
2023-04-15T13:08:09.846Z,9.30
2023-04-15T13:11:13.046Z,9.30
2023-04-15T13:14:17.336Z,9.93
2023-04-15T13:17:21.943Z,9.97
2023-04-15T13:20:25.718Z,7.57
2023-04-15T13:23:28.818Z,8.63
2023-04-15T13:26:32.296Z,8.20
2023-04-15T13:29:36.637Z,8.03
2023-04-15T13:32:39.632Z,7.33
2023-04-15T13:35:42.639Z,7.20
2023-04-15T13:38:45.714Z,7.33
2023-04-15T13:41:49.271Z,7.20
2023-04-15T13:44:53.861Z,8.07
2023-04-15T13:47:57.237Z,8.17
2023-04-15T13:51:00.279Z,8.33
2023-04-15T13:54:03.455Z,7.40
2023-04-15T13:57:06.848Z,7.13
2023-04-15T14:00:12.578Z,6.83
2023-04-15T14:03:15.682Z,6.93
2023-04-15T14:06:18.797Z,7.23
2023-04-15T14:09:24.978Z,7.10
2023-04-15T14:12:29.341Z,6.53
2023-04-15T14:15:33.690Z,6.50
2023-04-15T14:18:37.309Z,6.43
2023-04-15T14:21:40.289Z,7.43
2023-04-15T14:24:43.373Z,6.67
2023-04-15T14:27:46.317Z,7.77
2023-04-15T14:30:50.744Z,7.97
2023-04-15T14:33:53.756Z,6.73
2023-04-15T14:36:57.224Z,7.30
2023-04-15T14:40:00.323Z,7.77
2023-04-15T14:43:03.328Z,9.10
2023-04-15T14:46:08.471Z,7.53
2023-04-15T14:49:11.602Z,8.20
2023-04-15T14:52:14.564Z,7.40
2023-04-15T14:55:17.569Z,6.43
2023-04-15T14:58:20.541Z,7.40
2023-04-15T15:01:25.018Z,6.03
2023-04-15T15:04:28.187Z,5.90
2023-04-15T15:07:31.556Z,6.23
2023-04-15T15:10:48.418Z,7.17
2023-04-15T15:13:52.793Z,8.03
2023-04-15T15:16:57.066Z,7.97
2023-04-15T15:20:00.065Z,6.90
2023-04-15T15:23:03.087Z,7.43
2023-04-15T15:26:06.740Z,6.93
2023-04-15T15:29:09.730Z,8.87
2023-04-15T15:32:14.067Z,7.93
2023-04-15T15:35:17.312Z,8.67
2023-04-15T15:38:20.582Z,7.70
2023-04-15T15:41:23.552Z,6.73
2023-04-15T15:44:26.551Z,7.57
2023-04-15T15:47:30.930Z,7.50
2023-04-15T15:50:34.502Z,7.03
2023-04-15T15:53:37.488Z,7.63
2023-04-15T15:56:42.103Z,7.33
2023-04-15T15:59:45.104Z,7.53
2023-04-15T16:03:06.199Z,8.07
2023-04-15T16:06:10.435Z,7.93
2023-04-15T16:09:13.654Z,8.00
2023-04-15T16:12:16.635Z,7.37
2023-04-15T16:15:19.822Z,8.67
2023-04-15T16:18:24.139Z,9.83
2023-04-15T16:21:27.347Z,11.03
2023-04-15T16:24:31.317Z,9.80
2023-04-15T16:27:43.415Z,10.77
2023-04-15T16:30:53.153Z,10.60
2023-04-15T16:33:57.910Z,9.57
2023-04-15T16:37:00.924Z,9.33
2023-04-15T16:40:04.220Z,10.60
2023-04-15T16:43:11.095Z,10.20
2023-04-15T16:46:14.145Z,9.70
2023-04-15T16:49:18.469Z,10.33
2023-04-15T16:52:21.459Z,10.83
2023-04-15T16:55:24.445Z,10.47
2023-04-15T16:58:27.706Z,10.93
2023-04-15T17:01:31.142Z,12.57
2023-04-15T17:04:35.911Z,11.70
2023-04-15T17:07:39.030Z,11.50
2023-04-15T17:10:42.078Z,11.20
2023-04-15T17:13:45.092Z,10.70
2023-04-15T17:16:48.277Z,12.23
2023-04-15T17:19:52.637Z,11.67
2023-04-15T17:22:55.819Z,12.87
2023-04-15T17:25:58.905Z,11.23
2023-04-15T17:29:05.804Z,10.53
2023-04-15T17:32:10.178Z,13.60
2023-04-15T17:35:14.521Z,14.30
2023-04-15T17:38:17.459Z,12.17
2023-04-15T17:41:20.403Z,13.53
2023-04-15T17:44:25.149Z,12.70
2023-04-15T17:47:29.011Z,14.30
2023-04-15T17:50:33.369Z,12.27
2023-04-15T17:53:36.362Z,12.10
2023-04-15T17:56:39.358Z,13.83
2023-04-15T17:59:44.044Z,11.07
2023-04-15T18:02:48.624Z,16.90
2023-04-15T18:05:53.330Z,17.53
2023-04-15T18:08:56.328Z,12.43
2023-04-15T18:11:59.477Z,14.03
2023-04-15T18:15:02.510Z,15.40
2023-04-15T18:18:05.889Z,16.03
2023-04-15T18:21:11.654Z,14.00
2023-04-15T18:24:16.447Z,14.07
2023-04-15T18:27:19.632Z,12.73
2023-04-15T18:30:23.431Z,15.40
2023-04-15T18:33:26.450Z,14.63
2023-04-15T18:36:31.526Z,15.03
2023-04-15T18:39:34.514Z,14.30
2023-04-15T18:42:37.496Z,14.90
2023-04-15T18:45:40.543Z,17.80
2023-04-15T18:48:43.621Z,16.17
2023-04-15T18:51:47.945Z,17.07
2023-04-15T18:54:50.906Z,14.83
2023-04-15T18:57:53.945Z,14.27
2023-04-15T19:00:59.772Z,14.30
2023-04-15T19:04:03.232Z,15.47
2023-04-15T19:07:09.621Z,15.87
2023-04-15T19:10:12.799Z,14.07
2023-04-15T19:13:17.680Z,15.37
2023-04-15T19:16:21.663Z,14.33
2023-04-15T19:19:24.646Z,17.57
2023-04-15T19:22:31.142Z,16.80
2023-04-15T19:25:34.103Z,18.53
2023-04-15T19:28:37.049Z,15.10
2023-04-15T19:31:40.012Z,13.63
2023-04-15T19:34:42.975Z,15.27
2023-04-15T19:37:48.364Z,16.33
2023-04-15T19:40:51.372Z,13.67
2023-04-15T19:43:54.379Z,13.37
2023-04-15T19:46:57.796Z,13.50
2023-04-15T19:50:00.911Z,13.87
2023-04-15T19:53:05.346Z,14.07
2023-04-15T19:56:08.327Z,14.43
2023-04-15T19:59:12.711Z,15.03
2023-04-15T20:02:16.030Z,17.13
2023-04-15T20:05:19.040Z,15.53
2023-04-15T20:08:23.300Z,13.57
2023-04-15T20:12:44.893Z,16.07
2023-04-15T20:14:52.339Z,14.63
2023-04-15T20:17:55.300Z,15.70
2023-04-15T20:20:58.277Z,12.10
2023-04-15T20:24:02.641Z,14.57
2023-04-15T20:27:05.652Z,13.93
2023-04-15T20:30:09.696Z,13.40
2023-04-15T20:33:12.652Z,13.00
2023-04-15T20:36:15.702Z,13.43
2023-04-15T20:39:20.233Z,13.37
2023-04-15T20:42:23.191Z,18.80
2023-04-15T20:45:26.234Z,17.43
2023-04-15T20:48:29.188Z,16.17
2023-04-15T20:51:37.413Z,15.57
2023-04-15T20:54:41.744Z,16.47
2023-04-15T20:57:44.701Z,14.33
2023-04-15T21:00:47.735Z,13.20
2023-04-15T21:03:50.913Z,14.57
2023-04-15T21:06:54.011Z,13.10
2023-04-15T21:09:58.299Z,13.17
2023-04-15T21:13:01.451Z,16.50
2023-04-15T21:16:04.675Z,14.30
2023-04-15T21:19:07.860Z,17.77
2023-04-15T21:22:11.001Z,14.60
2023-04-15T21:25:15.338Z,18.27
2023-04-15T21:28:18.309Z,16.30
2023-04-15T21:31:22.051Z,13.73
2023-04-15T21:34:25.101Z,15.20
2023-04-15T21:37:28.060Z,15.90
2023-04-15T21:40:32.407Z,14.43
2023-04-15T21:43:35.328Z,17.30
2023-04-15T21:46:38.303Z,16.30
2023-04-15T21:49:42.383Z,17.33
2023-04-15T21:52:45.366Z,16.60
2023-04-15T21:55:49.693Z,18.50
2023-04-15T21:58:56.713Z,17.80
2023-04-15T22:01:59.785Z,16.93
2023-04-15T22:05:02.993Z,17.90
2023-04-15T22:08:07.809Z,16.27
2023-04-15T22:11:20.551Z,18.07
2023-04-15T22:14:23.475Z,17.23
2023-04-15T22:17:27.593Z,16.53
2023-04-15T22:20:31.024Z,15.93
2023-04-15T22:23:33.937Z,14.77
2023-04-15T22:26:38.236Z,16.97
2023-04-15T22:29:41.190Z,13.97
2023-04-15T22:32:44.230Z,17.00
2023-04-15T22:35:47.236Z,15.87
2023-04-15T22:38:50.197Z,15.10
2023-04-15T22:41:54.500Z,19.63
2023-04-15T22:44:57.458Z,16.00
2023-04-15T22:48:00.533Z,16.87
2023-04-15T22:51:04.773Z,17.57
2023-04-15T22:54:07.743Z,16.13
2023-04-15T22:57:12.070Z,14.67
2023-04-15T23:00:15.381Z,17.47
2023-04-15T23:03:18.447Z,17.17
2023-04-15T23:06:22.031Z,17.07
2023-04-15T23:09:25.100Z,19.27
2023-04-15T23:12:29.441Z,17.60
2023-04-15T23:15:32.412Z,17.87
2023-04-15T23:18:35.549Z,18.77
2023-04-15T23:21:38.504Z,21.23
2023-04-15T23:24:41.976Z,20.97
2023-04-15T23:27:46.254Z,19.37
2023-04-15T23:30:49.236Z,19.20
2023-04-15T23:33:52.220Z,18.90
2023-04-15T23:36:55.420Z,19.13
2023-04-15T23:39:58.374Z,18.30
2023-04-15T23:43:02.656Z,18.10
2023-04-15T23:46:05.755Z,17.77
2023-04-15T23:49:08.993Z,19.00
2023-04-15T23:52:12.220Z,19.27
2023-04-15T23:55:15.224Z,20.00
2023-04-15T23:58:19.510Z,16.53
